Time;durP1;ratioP1;P1;durP2;ratioP2;P2;SDS_P1;SDS_P2;PMS_P1;PMS_P2;Temp;Humidity;BMP_temperature;BMP_pressure;BME280_temperature;BME280_humidity;BME280_pressure;Samples;Min_cycle;Max_cycle;Signal;HPM_P1;HPM_P2
2023/07/23 00:02:01;;;;;;;2.28;0.28;;;;;;;17.84;100.00;99943.34;7361839;19;20038;-63
2023/07/23 00:04:28;;;;;;;1.67;0.40;;;;;;;17.83;100.00;99935.56;7362702;19;20018;-62
2023/07/23 00:06:55;;;;;;;1.30;0.17;;;;;;;17.83;100.00;99935.56;7361110;19;20616;-63
2023/07/23 00:09:22;;;;;;;1.35;0.13;;;;;;;17.81;100.00;99935.81;7360202;19;20032;-63
2023/07/23 00:11:51;;;;;;;0.88;0.15;;;;;;;17.82;100.00;99932.13;7362231;19;20025;-63
2023/07/23 00:14:19;;;;;;;1.55;0.15;;;;;;;17.83;100.00;99928.41;7360546;19;20010;-63
2023/07/23 00:16:47;;;;;;;0.57;0.10;;;;;;;17.84;100.00;99921.22;7359610;19;20047;-62
2023/07/23 00:19:19;;;;;;;2.80;0.13;;;;;;;17.85;100.00;99920.19;7358427;19;20048;-62
2023/07/23 00:21:47;;;;;;;2.58;0.13;;;;;;;17.83;100.00;99915.09;7361777;19;20040;-62
2023/07/23 00:24:15;;;;;;;0.32;0.10;;;;;;;17.80;100.00;99917.41;7358035;19;20015;-64
2023/07/23 00:26:42;;;;;;;2.47;0.40;;;;;;;17.83;100.00;99914.28;7359202;19;20010;-63
2023/07/23 00:29:09;;;;;;;1.35;0.20;;;;;;;17.84;100.00;99910.59;7360743;19;20025;-63
2023/07/23 00:31:36;;;;;;;1.33;0.00;;;;;;;17.83;100.00;99906.28;7355689;19;20023;-63
2023/07/23 00:34:05;;;;;;;1.35;0.10;;;;;;;17.83;100.00;99893.78;7358265;19;20014;-63
2023/07/23 00:36:32;;;;;;;1.67;0.10;;;;;;;17.83;100.00;99896.47;7359886;19;20026;-63
2023/07/23 00:38:59;;;;;;;0.63;0.10;;;;;;;17.82;100.00;99897.53;7355120;19;20963;-63
2023/07/23 00:41:27;;;;;;;0.85;0.28;;;;;;;17.86;100.00;99897.88;7358831;19;20014;-63
2023/07/23 00:43:55;;;;;;;1.92;0.10;;;;;;;17.85;100.00;99885.59;7358840;19;20018;-62
2023/07/23 00:46:23;;;;;;;2.28;0.10;;;;;;;17.85;100.00;99882.94;7358431;19;20026;-62
2023/07/23 00:48:51;;;;;;;1.45;0.20;;;;;;;17.84;100.00;99878.66;7358191;19;20040;-62
2023/07/23 00:51:18;;;;;;;0.98;0.20;;;;;;;17.82;100.00;99872.75;7358187;19;20018;-64
2023/07/23 00:53:45;;;;;;;0.40;0.10;;;;;;;17.82;100.00;99876.22;7352852;19;20134;-63
2023/07/23 00:56:18;;;;;;;4.35;0.20;;;;;;;17.83;100.00;99877.00;7357205;19;20036;-62
2023/07/23 00:58:46;;;;;;;1.33;0.10;;;;;;;17.84;100.00;99868.00;7359016;19;20022;-63
2023/07/23 01:01:14;;;;;;;1.35;0.10;;;;;;;17.81;100.00;99866.63;7356877;19;20029;-62
2023/07/23 01:03:41;;;;;;;1.08;0.10;;;;;;;17.81;100.00;99853.31;7356382;19;20035;-63
2023/07/23 01:06:11;;;;;;;1.65;0.10;;;;;;;17.81;100.00;99857.81;7361865;19;20018;-62
2023/07/23 01:08:40;;;;;;;2.13;0.70;;;;;;;17.82;100.00;99851.47;7354267;19;20722;-63
2023/07/23 01:11:08;;;;;;;1.15;0.17;;;;;;;17.84;100.00;99852.84;7355376;19;20035;-63
2023/07/23 01:13:37;;;;;;;0.70;0.10;;;;;;;17.85;100.00;99846.50;7355214;19;20021;-63
2023/07/23 01:16:07;;;;;;;1.25;0.20;;;;;;;17.85;100.00;99843.81;7358903;19;20712;-63
2023/07/23 01:18:38;;;;;;;1.65;0.20;;;;;;;17.82;100.00;99841.63;7359485;19;22093;-63
2023/07/23 01:21:05;;;;;;;1.35;0.20;;;;;;;17.83;100.00;99843.22;7362100;19;20022;-63
2023/07/23 01:23:32;;;;;;;1.55;0.20;;;;;;;17.85;100.00;99837.69;7356678;19;20334;-62
2023/07/23 01:26:00;;;;;;;0.90;0.10;;;;;;;17.87;100.00;99840.94;7360946;19;20018;-62
2023/07/23 01:28:27;;;;;;;0.93;0.20;;;;;;;17.89;100.00;99838.84;7358101;19;20498;-61
2023/07/23 01:30:55;;;;;;;1.60;0.10;;;;;;;17.87;100.00;99830.31;7358270;19;20019;-61
2023/07/23 01:33:23;;;;;;;0.98;0.20;;;;;;;17.85;100.00;99829.72;7359630;19;20578;-62
2023/07/23 01:35:54;;;;;;;3.83;0.20;;;;;;;17.83;100.00;99819.28;7359240;19;20006;-61
2023/07/23 01:38:22;;;;;;;1.00;0.13;;;;;;;17.86;100.00;99823.34;7353789;19;20841;-61
2023/07/23 01:40:50;;;;;;;0.40;0.10;;;;;;;17.88;100.00;99815.94;7359354;19;20924;-61
2023/07/23 01:43:17;;;;;;;1.15;0.10;;;;;;;17.89;100.00;99823.69;7358282;19;20021;-62
2023/07/23 01:45:45;;;;;;;0.50;0.10;;;;;;;17.90;100.00;99814.69;7359177;19;20022;-62
2023/07/23 01:48:13;;;;;;;0.85;0.10;;;;;;;17.93;100.00;99813.41;7358136;19;20026;-62
2023/07/23 01:50:40;;;;;;;0.65;0.10;;;;;;;17.93;100.00;99808.09;7358542;19;20021;-61
2023/07/23 01:53:08;;;;;;;2.05;0.20;;;;;;;17.94;100.00;99809.72;7352460;19;20013;-62
2023/07/23 01:55:35;;;;;;;1.50;0.10;;;;;;;17.96;100.00;99802.31;7353683;19;20015;-65
2023/07/23 01:58:02;;;;;;;3.92;0.10;;;;;;;17.98;100.00;99808.22;7356877;19;20022;-62
2023/07/23 02:00:29;;;;;;;1.00;0.00;;;;;;;17.95;100.00;99804.19;7357517;19;20026;-61
2023/07/23 02:02:56;;;;;;;1.95;0.10;;;;;;;17.96;100.00;99799.66;7362830;19;20031;-61
2023/07/23 02:05:23;;;;;;;2.05;0.10;;;;;;;17.96;100.00;99789.00;7361908;19;20018;-63
2023/07/23 02:07:51;;;;;;;0.30;0.00;;;;;;;17.99;100.00;99798.38;7360541;19;20042;-62
2023/07/23 02:10:20;;;;;;;0.30;0.00;;;;;;;17.98;100.00;99797.56;7363467;19;20055;-63
2023/07/23 02:12:47;;;;;;;1.13;0.00;;;;;;;17.98;100.00;99800.22;7363464;19;20110;-62
2023/07/23 02:15:14;;;;;;;0.70;0.08;;;;;;;17.97;100.00;99790.66;7361534;19;20018;-61
2023/07/23 02:17:41;;;;;;;0.10;0.00;;;;;;;17.97;100.00;99793.31;7364412;19;20022;-62
2023/07/23 02:20:09;;;;;;;2.63;0.30;;;;;;;17.97;100.00;99789.84;7363986;19;20496;-63
2023/07/23 02:22:36;;;;;;;0.43;0.00;;;;;;;17.97;100.00;99782.66;7364455;19;20018;-61
2023/07/23 02:25:04;;;;;;;1.48;0.00;;;;;;;17.99;100.00;99775.25;7363213;19;20176;-62
2023/07/23 02:27:31;;;;;;;1.90;0.10;;;;;;;18.01;100.00;99777.69;7363169;19;20018;-61
2023/07/23 02:29:58;;;;;;;0.28;0.10;;;;;;;18.00;100.00;99768.88;7363919;19;20018;-61
2023/07/23 02:32:26;;;;;;;0.35;0.10;;;;;;;18.01;100.00;99770.50;7361820;19;20035;-62
2023/07/23 02:34:53;;;;;;;0.25;0.00;;;;;;;18.02;100.00;99772.16;7366141;19;21653;-61
2023/07/23 02:37:20;;;;;;;1.33;0.47;;;;;;;18.02;100.00;99772.16;7357598;19;20562;-62
2023/07/23 02:39:47;;;;;;;1.30;0.20;;;;;;;18.05;100.00;99773.53;7362861;19;20130;-61
2023/07/23 02:42:14;;;;;;;0.40;0.00;;;;;;;18.06;100.00;99764.50;7366006;19;20018;-62
2023/07/23 02:44:41;;;;;;;3.10;0.10;;;;;;;18.06;100.00;99762.66;7359384;19;20030;-61
2023/07/23 02:47:07;;;;;;;0.20;0.10;;;;;;;18.07;100.00;99764.28;7363123;19;20089;-62
2023/07/23 02:49:34;;;;;;;0.73;0.00;;;;;;;18.08;100.00;99757.09;7363480;19;20019;-62
2023/07/23 02:52:02;;;;;;;1.42;0.00;;;;;;;18.08;100.00;99755.22;7362300;19;20022;-62
2023/07/23 02:54:29;;;;;;;1.38;0.00;;;;;;;18.08;100.00;99757.91;7360984;19;20015;-62
2023/07/23 02:56:56;;;;;;;0.22;0.00;;;;;;;18.10;100.00;99752.34;7359684;19;20109;-63
2023/07/23 02:59:24;;;;;;;3.55;0.40;;;;;;;18.11;100.00;99746.81;7362819;19;20015;-62
2023/07/23 03:01:51;;;;;;;0.40;0.00;;;;;;;18.10;100.00;99742.50;7364431;19;20018;-63
2023/07/23 03:04:18;;;;;;;0.20;0.00;;;;;;;18.09;100.00;99732.09;7363132;19;21310;-61
2023/07/23 03:06:45;;;;;;;0.20;0.00;;;;;;;18.10;100.00;99731.06;7364296;19;20010;-61
2023/07/23 03:09:12;;;;;;;0.50;0.00;;;;;;;18.12;100.00;99731.66;7357413;19;20093;-61
2023/07/23 03:11:42;;;;;;;1.38;0.00;;;;;;;18.14;100.00;99732.22;7363948;19;20010;-62
2023/07/23 03:14:09;;;;;;;1.02;0.40;;;;;;;18.15;100.00;99733.84;7359155;19;20033;-61
2023/07/23 03:16:37;;;;;;;0.77;0.00;;;;;;;18.14;100.00;99730.34;7361973;19;20543;-61
2023/07/23 03:19:04;;;;;;;0.20;0.00;;;;;;;18.15;100.00;99731.19;7362472;19;20010;-62
2023/07/23 03:21:31;;;;;;;1.15;0.10;;;;;;;18.15;100.00;99726.66;7364354;19;20015;-62
2023/07/23 03:23:58;;;;;;;0.47;0.08;;;;;;;18.15;100.00;99721.34;7359835;19;20014;-63
2023/07/23 03:26:25;;;;;;;0.20;0.00;;;;;;;18.17;100.00;99726.44;7364639;19;20006;-61
2023/07/23 03:28:52;;;;;;;1.55;0.10;;;;;;;18.14;100.00;99730.34;7358867;19;20007;-62
2023/07/23 03:31:19;;;;;;;2.65;0.00;;;;;;;18.14;100.00;99725.03;7365371;19;20014;-61
2023/07/23 03:33:51;;;;;;;1.45;0.10;;;;;;;18.15;100.00;99731.19;7362473;19;20027;-62
2023/07/23 03:36:19;;;;;;;0.22;0.10;;;;;;;18.15;100.00;99721.34;7364643;19;20058;-61
2023/07/23 03:38:45;;;;;;;1.40;0.20;;;;;;;18.14;100.00;99725.03;7357157;19;20023;-62
2023/07/23 03:41:12;;;;;;;0.45;0.00;;;;;;;18.15;100.00;99718.69;7356126;19;20799;-62
2023/07/23 03:43:39;;;;;;;0.10;0.00;;;;;;;18.16;100.00;99727.47;7360821;19;20094;-62
2023/07/23 03:46:07;;;;;;;0.73;0.10;;;;;;;18.14;100.00;99729.53;7364345;19;20101;-62
2023/07/23 03:48:34;;;;;;;0.30;0.10;;;;;;;18.15;100.00;99729.31;7361916;19;20010;-61
2023/07/23 03:51:01;;;;;;;0.20;0.10;;;;;;;18.18;100.00;99728.06;7362869;19;20014;-62
2023/07/23 03:53:28;;;;;;;2.58;0.43;;;;;;;18.20;100.00;99731.31;7358552;19;20038;-61
2023/07/23 03:55:55;;;;;;;2.80;0.30;;;;;;;18.24;100.00;99727.94;7359770;19;20018;-62
2023/07/23 03:58:22;;;;;;;1.05;0.10;;;;;;;18.25;100.00;99732.22;7355706;19;20118;-62
2023/07/23 04:00:49;;;;;;;0.82;0.10;;;;;;;18.26;100.00;99733.06;7363125;19;20057;-62
2023/07/23 04:03:16;;;;;;;0.65;0.10;;;;;;;18.27;100.00;99734.69;7362109;19;20026;-62
2023/07/23 04:05:43;;;;;;;0.45;0.03;;;;;;;18.27;100.00;99730.16;7361595;19;20025;-62
2023/07/23 04:08:10;;;;;;;2.20;0.98;;;;;;;18.28;100.00;99723.81;7360525;19;20526;-61
2023/07/23 04:10:38;;;;;;;0.73;0.10;;;;;;;18.29;100.00;99735.25;7360350;19;20368;-62
2023/07/23 04:13:05;;;;;;;0.80;0.20;;;;;;;18.32;100.00;99737.47;7361268;19;20014;-63
2023/07/23 04:15:36;;;;;;;0.90;0.10;;;;;;;18.29;100.00;99733.41;7358372;19;20051;-63
2023/07/23 04:18:11;;;;;;;1.95;0.10;;;;;;;18.27;100.00;99730.16;7364957;19;20613;-62
2023/07/23 04:20:39;;;;;;;2.15;0.10;;;;;;;18.28;100.00;99731.78;7361538;19;20454;-62
2023/07/23 04:23:06;;;;;;;1.13;0.40;;;;;;;18.28;100.00;99730.97;7361255;19;20015;-62
2023/07/23 04:25:33;;;;;;;1.20;0.20;;;;;;;18.28;100.00;99730.97;7359347;19;20027;-63
2023/07/23 04:28:00;;;;;;;1.05;0.20;;;;;;;18.28;100.00;99731.78;7363607;19;20022;-63
2023/07/23 04:30:28;;;;;;;0.60;0.20;;;;;;;18.29;100.00;99737.91;7359809;19;20028;-63
2023/07/23 04:32:55;;;;;;;2.53;0.30;;;;;;;18.29;100.00;99737.91;7358269;19;20002;-62
2023/07/23 04:35:22;;;;;;;1.45;0.40;;;;;;;18.29;100.00;99732.56;7359039;19;20014;-63
2023/07/23 04:37:49;;;;;;;0.60;0.30;;;;;;;18.31;100.00;99735.84;7359592;19;20089;-61
2023/07/23 04:40:16;;;;;;;1.10;0.30;;;;;;;18.32;100.00;99734.81;7360194;19;20297;-61
2023/07/23 04:42:43;;;;;;;1.98;0.30;;;;;;;18.34;100.00;99738.03;7361860;19;20026;-62
2023/07/23 04:45:10;;;;;;;1.52;0.20;;;;;;;18.33;100.00;99734.56;7359667;19;20126;-61
2023/07/23 04:47:39;;;;;;;2.72;0.22;;;;;;;18.31;100.00;99752.63;7361463;19;20081;-62
2023/07/23 04:50:06;;;;;;;0.88;0.30;;;;;;;18.30;100.00;99742.19;7361234;19;20409;-62
2023/07/23 04:52:35;;;;;;;1.20;0.20;;;;;;;18.29;100.00;99738.72;7355854;19;20018;-61
2023/07/23 04:55:03;;;;;;;2.00;0.88;;;;;;;18.29;100.00;99740.56;7359168;19;20719;-61
2023/07/23 04:57:30;;;;;;;1.75;0.30;;;;;;;18.29;100.00;99746.72;7357644;19;20200;-61
2023/07/23 04:59:57;;;;;;;1.08;0.40;;;;;;;18.31;100.00;99743.81;7355348;19;20018;-62
2023/07/23 05:02:24;;;;;;;1.83;0.30;;;;;;;18.29;100.00;99751.22;7358185;19;20094;-62
2023/07/23 05:04:51;;;;;;;2.17;0.40;;;;;;;18.28;100.00;99758.44;7356513;19;20025;-63
2023/07/23 05:07:18;;;;;;;2.03;0.38;;;;;;;18.28;100.00;99762.94;7359811;19;20010;-61
2023/07/23 05:09:45;;;;;;;0.88;0.30;;;;;;;18.28;100.00;99762.94;7357119;19;20057;-62
2023/07/23 05:12:12;;;;;;;1.25;0.30;;;;;;;18.31;100.00;99765.13;7359543;19;20018;-62
2023/07/23 05:14:39;;;;;;;1.60;0.30;;;;;;;18.28;100.00;99770.94;7360166;19;20093;-61
2023/07/23 05:17:06;;;;;;;3.42;0.52;;;;;;;18.27;100.00;99767.47;7358758;19;20018;-61
2023/07/23 05:19:33;;;;;;;2.28;0.30;;;;;;;18.30;100.00;99766.16;7356799;19;20016;-61
2023/07/23 05:22:00;;;;;;;1.75;0.40;;;;;;;18.31;100.00;99768.63;7360487;19;20033;-61
2023/07/23 05:24:27;;;;;;;1.20;0.40;;;;;;;18.32;100.00;99772.09;7357712;19;20094;-61
2023/07/23 05:26:54;;;;;;;3.28;0.40;;;;;;;18.30;100.00;99772.31;7361183;19;20014;-61
2023/07/23 05:29:22;;;;;;;1.25;0.30;;;;;;;18.33;100.00;99776.38;7358285;19;20018;-61
2023/07/23 05:31:50;;;;;;;2.53;0.30;;;;;;;18.35;100.00;99774.28;7358339;19;20010;-62
2023/07/23 05:34:17;;;;;;;1.42;0.70;;;;;;;18.36;100.00;99771.41;7359390;19;20015;-62
2023/07/23 05:36:44;;;;;;;0.95;0.30;;;;;;;18.44;100.00;99764.13;7361104;19;20024;-62
2023/07/23 05:39:11;;;;;;;3.70;0.47;;;;;;;18.45;100.00;99768.38;7360906;19;20019;-63
2023/07/23 05:41:38;;;;;;;2.55;0.40;;;;;;;18.47;100.00;99782.31;7365776;19;20362;-64
2023/07/23 05:44:05;;;;;;;1.05;0.28;;;;;;;18.48;100.00;99775.94;7364997;19;20217;-62
2023/07/23 05:46:32;;;;;;;1.83;0.25;;;;;;;18.49;100.00;99775.69;7364416;19;20010;-62
2023/07/23 05:48:59;;;;;;;3.97;0.93;;;;;;;18.49;100.00;99777.56;7364507;19;20018;-62
2023/07/23 05:51:26;;;;;;;1.88;0.45;;;;;;;18.54;100.00;99769.72;7365798;19;20018;-61
2023/07/23 05:53:57;;;;;;;3.17;0.30;;;;;;;18.55;100.00;99776.66;7357499;19;20028;-61
2023/07/23 05:56:24;;;;;;;0.70;0.30;;;;;;;18.56;100.00;99781.75;7364061;19;20019;-63
2023/07/23 05:58:51;;;;;;;0.90;0.30;;;;;;;18.57;100.00;99775.41;7361817;19;20672;-62
2023/07/23 06:01:18;;;;;;;3.53;0.30;;;;;;;18.57;100.00;99782.56;7361747;19;20021;-62
2023/07/23 06:03:53;;;;;;;3.10;0.50;;;;;;;18.59;100.00;99786.63;7365059;19;20019;-62
2023/07/23 06:06:22;;;;;;;2.75;0.40;;;;;;;18.61;100.00;99789.88;7365679;19;20021;-62
2023/07/23 06:08:49;;;;;;;2.22;0.20;;;;;;;18.59;100.00;99788.50;7362079;19;20090;-62
2023/07/23 06:11:16;;;;;;;1.38;0.30;;;;;;;18.59;100.00;99791.16;7365198;19;20486;-62
2023/07/23 06:13:50;;;;;;;2.80;0.30;;;;;;;18.59;100.00;99793.81;7359436;19;20298;-63
2023/07/23 06:16:17;;;;;;;2.47;0.40;;;;;;;18.62;100.00;99788.84;7366340;19;20960;-63
2023/07/23 06:18:44;;;;;;;4.30;0.60;;;;;;;18.64;100.00;99797.41;7361885;19;20033;-62
2023/07/23 06:21:11;;;;;;;1.35;0.30;;;;;;;18.62;100.00;99788.84;7365350;19;20356;-62
2023/07/23 06:23:38;;;;;;;1.48;0.30;;;;;;;18.65;100.00;99780.38;7359533;19;20033;-61
2023/07/23 06:26:05;;;;;;;1.55;0.20;;;;;;;18.66;100.00;99790.00;7364978;19;20025;-61
2023/07/23 06:28:35;;;;;;;2.05;0.30;;;;;;;18.78;100.00;99801.47;7363386;19;20018;-61
2023/07/23 06:31:02;;;;;;;1.83;0.25;;;;;;;18.88;100.00;99792.91;7361162;19;20018;-66
2023/07/23 06:33:29;;;;;;;2.15;0.30;;;;;;;18.95;100.00;99798.09;7363389;19;20074;-63
2023/07/23 06:35:56;;;;;;;5.13;0.70;;;;;;;19.04;100.00;99799.38;7360574;19;20023;-62
2023/07/23 06:38:24;;;;;;;1.70;0.30;;;;;;;19.07;100.00;99802.38;7360908;19;20030;-60
2023/07/23 06:40:52;;;;;;;1.02;0.30;;;;;;;19.11;100.00;99805.38;7364592;19;20118;-61
2023/07/23 06:43:20;;;;;;;1.48;0.28;;;;;;;19.12;100.00;99813.16;7361271;19;20117;-63
2023/07/23 06:45:49;;;;;;;2.00;0.40;;;;;;;19.16;100.00;99806.31;7362688;19;20496;-62
2023/07/23 06:48:18;;;;;;;1.63;0.28;;;;;;;19.15;100.00;99806.53;7363336;19;20018;-61
2023/07/23 06:50:46;;;;;;;2.53;0.28;;;;;;;19.15;100.00;99804.69;7364430;19;20018;-61
2023/07/23 06:53:14;;;;;;;1.92;0.40;;;;;;;19.13;100.00;99808.66;7361140;19;20375;-62
2023/07/23 06:56:01;;;;;;;2.65;0.30;;;;;;;19.10;99.55;99801.09;7361912;19;21767;-62
2023/07/23 06:58:31;;;;;;;1.55;0.40;;;;;;;19.04;99.76;99810.88;7363843;19;20436;-62
2023/07/23 07:00:58;;;;;;;2.22;0.60;;;;;;;19.06;99.01;99806.09;7361563;19;20018;-62
2023/07/23 07:03:25;;;;;;;2.30;0.50;;;;;;;19.07;99.66;99820.25;7360670;19;20755;-63
2023/07/23 07:05:52;;;;;;;2.75;0.43;;;;;;;19.08;99.46;99804.00;7364169;19;20724;-61
2023/07/23 07:08:20;;;;;;;1.67;0.40;;;;;;;19.10;98.93;99822.44;7359472;19;20013;-62
2023/07/23 07:10:47;;;;;;;1.77;0.43;;;;;;;19.11;98.25;99811.53;7363166;19;20014;-62
2023/07/23 07:13:14;;;;;;;1.35;0.50;;;;;;;19.10;98.12;99817.91;7361044;19;20035;-62
2023/07/23 07:15:41;;;;;;;1.05;0.45;;;;;;;19.12;97.81;99817.69;7364047;19;20010;-62
2023/07/23 07:18:09;;;;;;;3.30;0.55;;;;;;;19.10;97.96;99820.56;7363300;19;20034;-62
2023/07/23 07:20:36;;;;;;;1.13;0.50;;;;;;;19.10;97.85;99831.25;7363325;19;20142;-62
2023/07/23 07:23:03;;;;;;;1.60;0.32;;;;;;;19.12;98.43;99818.50;7361585;19;20015;-62
2023/07/23 07:25:30;;;;;;;1.88;0.60;;;;;;;19.13;98.04;99825.47;7361725;19;20018;-62
2023/07/23 07:27:57;;;;;;;2.78;0.40;;;;;;;19.12;97.89;99828.34;7363789;19;20393;-61
2023/07/23 07:30:24;;;;;;;1.42;0.50;;;;;;;19.10;97.79;99828.56;7361349;19;20014;-62
2023/07/23 07:32:52;;;;;;;3.55;0.50;;;;;;;19.11;97.91;99830.22;7361480;19;20032;-62
2023/07/23 07:35:19;;;;;;;3.50;0.50;;;;;;;19.13;97.69;99837.97;7357892;19;20595;-62
2023/07/23 07:37:47;;;;;;;2.45;0.60;;;;;;;19.14;97.43;99834.28;7362249;19;20983;-62
2023/07/23 07:40:14;;;;;;;2.35;0.43;;;;;;;19.05;95.58;99844.47;7355451;19;20207;-62
2023/07/23 07:42:41;;;;;;;3.33;0.60;;;;;;;19.04;94.75;99842.06;7359236;19;20052;-61
2023/07/23 07:45:09;;;;;;;4.03;0.47;;;;;;;19.07;95.72;99842.38;7361127;19;20534;-61
2023/07/23 07:47:36;;;;;;;5.85;0.50;;;;;;;19.09;96.15;99842.16;7362509;19;20018;-61
2023/07/23 07:50:05;;;;;;;1.95;0.50;;;;;;;19.10;95.99;99844.56;7357533;19;20082;-61
2023/07/23 07:52:33;;;;;;;4.07;0.40;;;;;;;19.11;96.06;99846.22;7359352;19;20023;-62
2023/07/23 07:55:00;;;;;;;1.88;0.60;;;;;;;19.12;97.15;99844.34;7357273;19;20019;-62
2023/07/23 07:57:27;;;;;;;1.90;0.40;;;;;;;19.12;96.73;99850.50;7358496;19;20042;-62
2023/07/23 07:59:55;;;;;;;3.38;0.40;;;;;;;19.10;95.59;99846.44;7356430;19;20015;-62
2023/07/23 08:02:22;;;;;;;1.70;0.45;;;;;;;19.08;95.62;99857.34;7361528;19;20019;-62
2023/07/23 08:04:49;;;;;;;3.58;0.50;;;;;;;19.10;95.42;99860.59;7360421;19;20010;-62
2023/07/23 08:07:19;;;;;;;1.95;0.50;;;;;;;19.11;95.58;99861.41;7360143;19;20029;-62
2023/07/23 08:09:48;;;;;;;2.83;0.50;;;;;;;19.13;95.92;99860.13;7358940;19;20091;-62
2023/07/23 08:12:17;;;;;;;3.75;0.57;;;;;;;19.15;96.05;99860.69;7362090;19;20047;-63
2023/07/23 08:14:44;;;;;;;2.22;0.55;;;;;;;19.16;95.73;99867.66;7357340;19;20011;-63
2023/07/23 08:17:12;;;;;;;1.35;0.50;;;;;;;19.16;95.40;99865.00;7362111;19;20449;-63
2023/07/23 08:19:39;;;;;;;2.20;0.50;;;;;;;19.22;96.47;99866.75;7359545;19;20018;-62
2023/07/23 08:22:06;;;;;;;1.10;0.40;;;;;;;19.26;95.46;99871.59;7360788;19;20018;-62
2023/07/23 08:24:34;;;;;;;3.03;0.40;;;;;;;19.26;94.63;99874.25;7356832;19;20014;-62
2023/07/23 08:27:03;;;;;;;2.97;0.45;;;;;;;19.29;94.88;99868.47;7360116;19;20018;-63
2023/07/23 08:29:33;;;;;;;2.78;0.40;;;;;;;19.34;94.54;99873.94;7361429;19;20198;-62
2023/07/23 08:32:01;;;;;;;2.70;0.35;;;;;;;19.39;94.75;99869.53;7360895;19;20014;-61
2023/07/23 08:34:29;;;;;;;3.35;0.40;;;;;;;19.43;94.57;99869.84;7359648;19;20157;-61
2023/07/23 08:36:56;;;;;;;2.85;0.40;;;;;;;19.45;93.94;99875.81;7357853;19;20483;-61
2023/07/23 08:39:23;;;;;;;2.10;0.40;;;;;;;19.45;93.56;99871.28;7358905;19;20022;-63
2023/07/23 08:42:12;;;;;;;1.52;0.40;;;;;;;19.50;93.93;99871.41;7360198;19;20447;-64
2023/07/23 08:45:10;;;;;;;1.75;0.38;;;;;;;19.55;94.23;99879.50;7360753;19;20569;-61
2023/07/23 08:47:38;;;;;;;2.13;0.30;;;;;;;19.62;94.90;99879.34;7358397;19;20021;-63
2023/07/23 08:50:06;;;;;;;5.15;1.35;;;;;;;19.66;94.05;99887.72;7354641;19;20014;-62
2023/07/23 08:52:35;;;;;;;1.58;0.50;;;;;;;19.69;93.30;99890.72;7357006;19;20042;-62
2023/07/23 08:55:18;;;;;;;1.60;0.40;;;;;;;19.70;92.79;99887.03;7357300;19;20726;-62
2023/07/23 08:57:46;;;;;;;0.85;0.30;;;;;;;19.76;92.89;99875.38;7359678;19;20019;-62
2023/07/23 09:00:13;;;;;;;2.33;0.38;;;;;;;19.81;92.48;99885.38;7355819;19;20030;-61
2023/07/23 09:02:41;;;;;;;3.47;0.30;;;;;;;19.84;91.65;99888.38;7355540;19;20018;-62
2023/07/23 09:05:10;;;;;;;1.55;0.40;;;;;;;19.89;91.32;99893.00;7359137;19;20035;-63
2023/07/23 09:07:37;;;;;;;2.47;0.30;;;;;;;19.89;90.66;99891.16;7358679;19;20018;-62
2023/07/23 09:10:07;;;;;;;2.17;0.43;;;;;;;19.93;90.47;99891.47;7359126;19;20022;-62
2023/07/23 09:12:40;;;;;;;2.53;0.45;;;;;;;19.97;90.47;99895.28;7354453;19;20039;-62
2023/07/23 09:15:08;;;;;;;1.23;0.40;;;;;;;19.93;88.35;99902.97;7356396;19;20030;-62
2023/07/23 09:17:35;;;;;;;1.75;0.50;;;;;;;19.95;87.80;99898.22;7356676;19;20056;-61
2023/07/23 09:20:02;;;;;;;1.45;0.35;;;;;;;19.92;87.37;99906.69;7359715;19;20106;-62
2023/07/23 09:22:32;;;;;;;0.82;0.25;;;;;;;19.96;88.29;99905.16;7357670;19;20044;-62
2023/07/23 09:25:00;;;;;;;2.17;0.30;;;;;;;19.99;87.64;99903.88;7357205;19;20014;-62
2023/07/23 09:27:37;;;;;;;1.70;0.30;;;;;;;20.03;88.00;99910.38;7358808;19;20018;-62
2023/07/23 09:30:04;;;;;;;2.10;0.40;;;;;;;20.03;87.39;99902.34;7360948;19;20090;-62
2023/07/23 09:32:33;;;;;;;2.50;0.38;;;;;;;20.10;87.60;99912.91;7359096;19;20014;-62
2023/07/23 09:35:00;;;;;;;1.05;0.30;;;;;;;20.15;86.77;99911.16;7356434;19;20328;-62
2023/07/23 09:37:28;;;;;;;2.10;0.30;;;;;;;20.19;86.63;99912.28;7355060;19;20053;-62
2023/07/23 09:39:56;;;;;;;1.75;0.40;;;;;;;20.26;86.26;99902.28;7355639;19;21503;-62
2023/07/23 09:42:24;;;;;;;2.03;0.40;;;;;;;20.34;85.63;99911.81;7357129;19;20010;-63
2023/07/23 09:44:52;;;;;;;1.98;0.30;;;;;;;20.41;85.30;99915.16;7357385;19;20058;-64
2023/07/23 09:47:24;;;;;;;0.73;0.30;;;;;;;20.44;84.15;99915.47;7359454;19;20023;-63
2023/07/23 09:49:52;;;;;;;;;;;;;;;20.51;83.51;99907.31;7357474;19;20516;-62
2023/07/23 09:52:23;;;;;;;2.60;0.40;;;;;;;20.55;83.01;99919.16;7355270;19;19922;-62
2023/07/23 09:54:52;;;;;;;1.33;0.30;;;;;;;20.59;81.95;99909.59;7354433;19;20024;-62
2023/07/23 09:57:21;;;;;;;3.15;0.40;;;;;;;20.63;82.08;99912.56;7357068;19;20022;-62
2023/07/23 09:59:50;;;;;;;1.20;0.30;;;;;;;20.68;82.30;99905.47;7357958;19;20018;-61
2023/07/23 10:02:18;;;;;;;1.20;0.30;;;;;;;20.77;81.92;99912.06;7356487;19;20353;-63
2023/07/23 10:04:46;;;;;;;1.02;0.35;;;;;;;20.90;81.38;99901.03;7352838;19;20017;-63
2023/07/23 10:07:14;;;;;;;1.10;0.35;;;;;;;21.04;80.07;99906.84;7358305;19;20049;-62
2023/07/23 10:09:41;;;;;;;3.03;0.52;;;;;;;21.18;79.72;99913.50;7355779;19;20053;-63
2023/07/23 10:12:08;;;;;;;2.00;0.32;;;;;;;21.24;79.47;99911.72;7357258;19;20012;-63
2023/07/23 10:14:36;;;;;;;0.95;0.40;;;;;;;21.24;79.97;99923.25;7355460;19;20650;-62
2023/07/23 10:17:05;;;;;;;2.95;0.40;;;;;;;21.22;79.51;99924.56;7359096;19;20015;-62
2023/07/23 10:19:32;;;;;;;1.48;0.40;;;;;;;21.16;78.27;99915.66;7354539;19;20098;-62
2023/07/23 10:22:00;;;;;;;4.68;0.40;;;;;;;21.14;78.61;99914.25;7358465;19;20046;-62
2023/07/23 10:24:38;;;;;;;2.75;0.40;;;;;;;21.14;79.27;99923.09;7357886;19;20097;-62
2023/07/23 10:27:14;;;;;;;2.28;0.40;;;;;;;21.19;79.38;99922.34;7368250;19;20462;-62
2023/07/23 10:30:18;;;;;;;1.58;0.40;;;;;;;21.24;77.98;99927.78;7361438;19;20029;-62
2023/07/23 10:32:45;;;;;;;;;;;;;;;21.32;78.57;99932.75;7363503;19;20026;-62
2023/07/23 10:35:12;;;;;;;2.25;0.30;;;;;;;21.38;77.44;99926.41;7362143;19;19915;-62
2023/07/23 10:37:39;;;;;;;1.65;0.40;;;;;;;21.43;77.44;99925.66;7363109;19;20029;-63
2023/07/23 10:40:07;;;;;;;1.63;0.30;;;;;;;21.49;77.16;99925.47;7358649;19;20014;-63
2023/07/23 10:42:44;;;;;;;1.10;0.30;;;;;;;21.54;76.63;99925.53;7364385;19;20524;-63
2023/07/23 10:45:17;;;;;;;1.23;0.38;;;;;;;21.57;76.50;99921.59;7362575;19;20894;-62
2023/07/23 10:47:51;;;;;;;1.75;0.50;;;;;;;21.62;77.00;99929.69;7364163;19;20024;-61
2023/07/23 10:50:20;;;;;;;1.10;0.30;;;;;;;21.61;76.70;99930.75;7363922;19;20122;-61
2023/07/23 10:53:02;;;;;;;1.17;0.40;;;;;;;21.66;77.24;99933.47;7357400;19;20025;-62
2023/07/23 10:55:36;;;;;;;2.23;0.40;;;;;;;21.72;76.59;99927.97;7360718;19;21016;-63
2023/07/23 10:58:11;;;;;;;1.85;0.57;;;;;;;21.77;77.83;99922.66;7363346;19;20389;-63
2023/07/23 11:00:43;;;;;;;1.13;0.40;;;;;;;21.82;76.57;99924.59;7363980;19;20011;-63
2023/07/23 11:03:22;;;;;;;3.85;0.55;;;;;;;21.90;76.29;99908.06;7353267;19;20011;-63
2023/07/23 11:05:52;;;;;;;1.65;0.40;;;;;;;21.98;75.11;99920.28;7356622;19;20026;-63
2023/07/23 11:08:24;;;;;;;1.33;0.75;;;;;;;22.08;73.27;99915.84;7357597;19;20018;-63
2023/07/23 11:10:57;;;;;;;5.45;0.50;;;;;;;22.20;72.52;99926.41;7361268;19;20863;-64
2023/07/23 11:13:37;;;;;;;2.35;0.70;;;;;;;22.24;69.78;99924.88;7362205;19;20162;-63
2023/07/23 11:16:10;;;;;;;1.13;0.43;;;;;;;22.30;68.13;99915.78;7363119;19;20047;-62
2023/07/23 11:18:37;;;;;;;1.90;0.40;;;;;;;22.36;69.20;99913.97;7359389;19;20110;-62
2023/07/23 11:21:05;;;;;;;1.48;0.50;;;;;;;22.40;70.22;99913.22;7363115;19;20030;-64
2023/07/23 11:23:33;;;;;;;1.95;0.55;;;;;;;22.40;69.75;99912.44;7358674;19;20034;-63
2023/07/23 11:26:00;;;;;;;1.40;0.50;;;;;;;22.44;70.44;99913.53;7361558;19;20077;-61
2023/07/23 11:28:27;;;;;;;1.63;0.50;;;;;;;22.44;70.96;99908.19;7359970;19;20142;-62
2023/07/23 11:30:55;;;;;;;1.92;0.50;;;;;;;22.43;71.52;99914.59;7362545;19;20470;-61
2023/07/23 11:33:29;;;;;;;1.30;0.60;;;;;;;22.42;71.33;99918.34;7361847;19;21746;-61
2023/07/23 11:35:56;;;;;;;4.15;0.50;;;;;;;22.43;71.99;99914.59;7358065;19;20022;-63